Terminal Aerodrome Forecast
Issued by NWS Wilmington, OH

Current Version | Previous Version | Graphics & Text | Print | Product List | Glossary On
Versions: 1 2 3 4 5 6 7 8 9 10 11 12 13 14 15 16 17 18 19 20 21 22 23 24
000
FTUS41 KILN 210538
TAFCVG
TAF
KCVG 210538Z 2106/2212 12009KT P6SM OVC250
     FM211500 20009KT P6SM SCT035 OVC190
     FM212000 20009KT P6SM VCSH SCT035 OVC090
     FM220100 19006KT 5SM BR SCT035 OVC040
     FM221100 22004KT 3SM BR OVC016=

USA.gov is the U.S. government's official web portal to all federal, state and local government web resources and services.